createdAt,value
2022-11-16T00:00:27.498Z,17.97
2022-11-16T00:02:54.422Z,16.60
2022-11-16T00:05:27.014Z,18.20
2022-11-16T00:07:55.255Z,18.67
2022-11-16T00:10:22.285Z,17.90
2022-11-16T00:12:49.243Z,18.63
2022-11-16T00:15:17.342Z,17.43
2022-11-16T00:17:45.040Z,18.77
2022-11-16T00:20:11.986Z,18.17
2022-11-16T00:22:41.091Z,18.20
2022-11-16T00:25:08.235Z,18.20
2022-11-16T00:27:35.261Z,19.97
2022-11-16T00:30:03.943Z,18.10
2022-11-16T00:32:33.990Z,19.00
2022-11-16T00:35:00.892Z,18.43
2022-11-16T00:37:27.802Z,19.17
2022-11-16T00:39:54.752Z,20.17
2022-11-16T00:42:21.672Z,17.40
2022-11-16T00:44:48.764Z,20.30
2022-11-16T00:47:15.636Z,19.43
2022-11-16T00:49:42.610Z,20.40
2022-11-16T00:52:15.470Z,21.67
2022-11-16T00:54:42.355Z,20.73
2022-11-16T00:57:09.322Z,20.87
2022-11-16T00:59:42.565Z,20.00
2022-11-16T01:02:10.867Z,20.27
2022-11-16T01:04:37.830Z,22.50
2022-11-16T01:07:04.906Z,21.40
2022-11-16T01:09:31.900Z,21.13
2022-11-16T01:12:10.806Z,18.67
2022-11-16T01:14:44.205Z,21.23
2022-11-16T01:17:11.459Z,21.93
2022-11-16T01:19:41.789Z,20.40
2022-11-16T01:22:08.764Z,22.60
2022-11-16T01:24:35.633Z,21.90
2022-11-16T01:27:02.523Z,21.13
2022-11-16T01:29:30.314Z,22.77
2022-11-16T01:31:58.084Z,20.67
2022-11-16T01:34:27.916Z,20.70
2022-11-16T01:36:54.751Z,21.80
2022-11-16T01:39:25.133Z,21.40
2022-11-16T01:41:52.005Z,22.17
2022-11-16T01:44:35.276Z,21.40
2022-11-16T01:47:10.028Z,20.10
2022-11-16T01:49:46.646Z,18.97
2022-11-16T01:52:25.932Z,19.27
2022-11-16T01:54:56.054Z,18.93
2022-11-16T01:57:36.943Z,19.73
2022-11-16T02:00:06.877Z,18.30
2022-11-16T02:02:33.966Z,17.83
2022-11-16T02:05:02.097Z,15.67
2022-11-16T02:08:11.324Z,16.40
2022-11-16T02:10:59.626Z,14.23
2022-11-16T02:16:52.829Z,14.60
2022-11-16T02:19:39.675Z,15.60
2022-11-16T02:22:15.600Z,15.80
2022-11-16T02:25:10.981Z,15.73
2022-11-16T02:28:21.050Z,14.67
2022-11-16T02:30:52.167Z,15.30
2022-11-16T02:33:23.614Z,15.47
2022-11-16T02:35:56.089Z,15.23
2022-11-16T02:38:36.611Z,14.63
2022-11-16T02:41:14.035Z,15.23
2022-11-16T02:43:45.207Z,14.13
2022-11-16T02:46:27.471Z,14.97
2022-11-16T02:48:57.487Z,14.20
2022-11-16T02:51:31.551Z,14.37
2022-11-16T02:54:05.129Z,14.63
2022-11-16T02:56:50.043Z,16.00
2022-11-16T02:59:17.876Z,14.43
2022-11-16T03:02:06.965Z,14.93
2022-11-16T03:04:45.736Z,15.40
2022-11-16T03:07:17.451Z,14.70
2022-11-16T03:09:46.154Z,16.43
2022-11-16T03:12:20.318Z,14.67
2022-11-16T03:14:53.539Z,15.87
2022-11-16T03:17:28.389Z,14.43
2022-11-16T03:20:01.309Z,14.03
2022-11-16T03:22:42.806Z,16.00
2022-11-16T03:25:12.851Z,14.47
2022-11-16T03:27:47.874Z,14.07
2022-11-16T03:30:26.482Z,14.40
2022-11-16T03:33:13.127Z,15.70
2022-11-16T03:36:05.488Z,14.93
2022-11-16T03:38:35.668Z,14.73
2022-11-16T03:41:11.031Z,14.93
2022-11-16T03:43:46.007Z,15.77
2022-11-16T03:46:14.254Z,13.67
2022-11-16T03:48:45.407Z,14.23
2022-11-16T03:51:12.841Z,14.03
2022-11-16T03:53:39.909Z,13.80
2022-11-16T03:56:09.190Z,14.47
2022-11-16T03:58:36.140Z,15.43
2022-11-16T04:01:06.282Z,14.77
2022-11-16T04:03:33.258Z,13.70
2022-11-16T04:06:18.579Z,13.80
2022-11-16T04:09:03.812Z,14.20
2022-11-16T04:11:49.246Z,14.90
2022-11-16T04:14:39.959Z,14.53
2022-11-16T04:17:36.269Z,13.67
2022-11-16T04:20:22.445Z,14.07
2022-11-16T04:23:13.691Z,13.43
2022-11-16T04:25:43.439Z,14.67
2022-11-16T04:28:13.515Z,15.50
2022-11-16T04:31:04.988Z,13.70
2022-11-16T04:33:51.038Z,14.13
2022-11-16T04:36:36.954Z,12.63
2022-11-16T04:39:04.896Z,12.83
2022-11-16T04:41:51.232Z,14.17
2022-11-16T04:44:18.690Z,14.63
2022-11-16T04:47:05.173Z,13.90
2022-11-16T04:49:32.977Z,13.43
2022-11-16T04:52:00.955Z,15.70
2022-11-16T04:54:27.902Z,15.07
2022-11-16T04:56:54.885Z,14.90
2022-11-16T04:59:21.895Z,15.23
2022-11-16T05:02:07.190Z,16.17
2022-11-16T05:04:41.495Z,16.77
2022-11-16T05:07:15.252Z,14.77
2022-11-16T05:09:51.563Z,16.47
2022-11-16T05:12:20.301Z,15.40
2022-11-16T05:14:47.441Z,16.97
2022-11-16T05:17:15.848Z,17.67
2022-11-16T05:20:01.335Z,16.87
2022-11-16T05:22:28.186Z,16.57
2022-11-16T05:24:55.600Z,17.77
2022-11-16T05:27:30.218Z,18.07
2022-11-16T05:29:57.302Z,17.93
2022-11-16T05:32:25.384Z,16.67
2022-11-16T05:34:52.316Z,18.03
2022-11-16T05:37:21.204Z,17.43
2022-11-16T05:39:48.605Z,19.07
2022-11-16T05:42:16.158Z,18.77
2022-11-16T05:44:43.064Z,18.07
2022-11-16T05:47:09.944Z,18.43
2022-11-16T05:49:36.839Z,18.93
2022-11-16T05:52:03.919Z,18.73
2022-11-16T05:54:31.418Z,18.73
2022-11-16T05:56:58.297Z,19.30
2022-11-16T06:02:40.416Z,18.00
2022-11-16T06:05:07.484Z,18.27
2022-11-16T06:07:34.365Z,18.67
2022-11-16T06:10:01.480Z,17.60
2022-11-16T06:12:28.872Z,18.37
2022-11-16T06:14:56.147Z,18.67
2022-11-16T06:17:23.249Z,18.07
2022-11-16T06:19:50.412Z,17.53
2022-11-16T06:22:17.639Z,16.67
2022-11-16T06:24:44.511Z,18.30
2022-11-16T06:27:13.196Z,17.73
2022-11-16T06:29:40.342Z,17.93
2022-11-16T06:32:07.358Z,17.10
2022-11-16T06:34:36.853Z,18.67
2022-11-16T06:37:06.843Z,17.57
2022-11-16T06:39:33.809Z,19.60
2022-11-16T06:42:30.351Z,19.33
2022-11-16T06:44:57.228Z,18.47
2022-11-16T06:47:24.305Z,17.60
2022-11-16T06:50:19.264Z,18.27
2022-11-16T06:55:55.873Z,18.67
2022-11-16T06:58:34.781Z,19.87
2022-11-16T07:01:12.498Z,17.83
2022-11-16T07:03:39.558Z,18.80
2022-11-16T07:06:12.122Z,17.23
2022-11-16T07:08:39.692Z,19.37
2022-11-16T07:11:08.271Z,18.87
2022-11-16T07:13:36.966Z,20.43
2022-11-16T07:16:05.554Z,17.83
2022-11-16T07:18:35.436Z,17.47
2022-11-16T07:21:28.601Z,18.17
2022-11-16T07:23:55.689Z,19.40
2022-11-16T07:26:26.773Z,18.90
2022-11-16T07:28:53.870Z,17.60
2022-11-16T07:31:21.437Z,20.67
2022-11-16T07:33:48.417Z,18.57
2022-11-16T07:36:16.002Z,17.33
2022-11-16T07:39:07.951Z,19.67
2022-11-16T07:41:40.091Z,18.90
2022-11-16T07:44:12.056Z,16.77
2022-11-16T07:46:48.454Z,17.73
2022-11-16T07:49:18.287Z,18.77
2022-11-16T07:51:46.210Z,17.87
2022-11-16T07:54:14.180Z,18.10
2022-11-16T07:56:42.558Z,19.83
2022-11-16T07:59:10.091Z,19.27
2022-11-16T08:01:37.743Z,18.03
2022-11-16T08:04:12.462Z,17.33
2022-11-16T08:06:39.871Z,17.07
2022-11-16T08:09:09.744Z,18.53
2022-11-16T08:11:38.282Z,19.00
2022-11-16T08:14:06.683Z,18.90
2022-11-16T08:16:34.392Z,17.93
2022-11-16T08:19:02.574Z,17.93
2022-11-16T08:21:30.297Z,18.83
2022-11-16T08:23:58.850Z,18.40
2022-11-16T08:26:27.413Z,20.37
2022-11-16T08:28:56.827Z,19.67
2022-11-16T08:31:28.985Z,19.97
2022-11-16T08:33:56.988Z,18.67
2022-11-16T08:36:27.537Z,18.53
2022-11-16T08:39:20.883Z,20.70
2022-11-16T08:41:48.545Z,19.93
2022-11-16T08:44:16.212Z,21.60
2022-11-16T08:46:44.442Z,19.30
2022-11-16T08:49:13.280Z,20.97
2022-11-16T08:51:41.066Z,20.37
2022-11-16T08:54:11.194Z,25.50
2022-11-16T08:56:38.895Z,24.20
2022-11-16T08:59:06.598Z,18.03
2022-11-16T09:01:34.356Z,16.27
2022-11-16T09:04:02.216Z,17.63
2022-11-16T09:06:30.010Z,17.77
2022-11-16T09:08:58.109Z,16.10
2022-11-16T09:11:26.492Z,16.80
2022-11-16T09:13:55.964Z,14.17
2022-11-16T09:16:28.977Z,14.83
2022-11-16T09:18:57.530Z,14.63
2022-11-16T09:21:27.433Z,15.67
2022-11-16T09:23:58.653Z,15.47
2022-11-16T09:26:26.799Z,15.07
2022-11-16T09:29:00.141Z,14.07
2022-11-16T09:31:29.046Z,17.20
2022-11-16T09:33:59.108Z,15.07
2022-11-16T09:36:32.938Z,15.40
2022-11-16T09:39:31.055Z,16.03
2022-11-16T09:42:11.032Z,14.37
2022-11-16T09:44:56.719Z,14.60
2022-11-16T09:47:31.239Z,14.20
2022-11-16T09:50:03.706Z,14.23
2022-11-16T09:52:44.794Z,13.37
2022-11-16T09:55:21.398Z,13.67
2022-11-16T10:00:50.632Z,14.20
2022-11-16T10:03:19.456Z,14.60
2022-11-16T10:05:59.433Z,14.53
2022-11-16T10:08:52.337Z,15.73
2022-11-16T10:11:43.009Z,16.10
2022-11-16T10:14:19.334Z,13.90
2022-11-16T10:17:12.703Z,16.23
2022-11-16T10:19:49.140Z,14.80
2022-11-16T10:22:29.313Z,15.63
2022-11-16T10:25:07.311Z,15.60
2022-11-16T10:27:52.130Z,15.73
2022-11-16T10:30:28.039Z,16.33
2022-11-16T10:33:09.604Z,16.67
2022-11-16T10:35:43.838Z,16.10
2022-11-16T10:38:25.427Z,15.73
2022-11-16T10:41:03.086Z,17.23
2022-11-16T10:43:33.705Z,17.20
2022-11-16T10:46:29.547Z,16.30
2022-11-16T10:49:02.489Z,17.73
2022-11-16T10:51:30.198Z,16.00
2022-11-16T10:53:57.690Z,17.63
2022-11-16T10:56:32.118Z,17.43
2022-11-16T10:59:06.227Z,16.87
2022-11-16T11:04:32.887Z,15.27
2022-11-16T11:07:24.730Z,15.90
2022-11-16T11:09:55.765Z,14.67
2022-11-16T11:12:40.161Z,17.43
2022-11-16T11:15:25.340Z,16.37
2022-11-16T11:18:12.642Z,17.33
2022-11-16T11:20:44.967Z,15.27
2022-11-16T11:23:17.932Z,15.33
2022-11-16T11:26:00.635Z,16.70
2022-11-16T11:28:33.004Z,16.97
2022-11-16T11:31:25.934Z,16.10
2022-11-16T11:33:59.943Z,16.67
2022-11-16T11:36:34.192Z,16.50
2022-11-16T11:39:12.829Z,15.70
2022-11-16T11:42:00.227Z,17.50
2022-11-16T11:44:52.105Z,18.43
2022-11-16T11:47:57.984Z,16.73
2022-11-16T11:50:34.025Z,18.13
2022-11-16T11:53:10.767Z,20.67
2022-11-16T11:55:39.866Z,19.43
2022-11-16T11:58:16.514Z,16.60
2022-11-16T12:01:20.846Z,16.33
2022-11-16T12:03:55.130Z,16.43
2022-11-16T12:06:45.397Z,13.83
2022-11-16T12:09:21.864Z,15.90
2022-11-16T12:11:59.106Z,14.97
2022-11-16T12:14:34.681Z,14.17
2022-11-16T12:17:27.221Z,13.17
2022-11-16T12:20:22.330Z,13.67
2022-11-16T12:23:16.746Z,13.60
2022-11-16T12:25:50.982Z,12.33
2022-11-16T12:29:09.281Z,13.70
2022-11-16T12:32:09.369Z,12.73
2022-11-16T12:35:07.541Z,14.37
2022-11-16T12:37:43.688Z,12.73
2022-11-16T12:40:50.424Z,13.87
2022-11-16T12:43:43.826Z,13.03
2022-11-16T12:46:37.264Z,11.70
2022-11-16T12:49:43.740Z,10.60
2022-11-16T12:52:48.022Z,10.83
2022-11-16T12:55:59.124Z,11.73
2022-11-16T12:58:44.691Z,12.43
2022-11-16T13:01:31.598Z,11.13
2022-11-16T13:04:11.222Z,10.63
2022-11-16T13:07:10.397Z,10.47
2022-11-16T13:09:44.330Z,9.43
2022-11-16T13:12:23.592Z,9.67
2022-11-16T13:14:55.075Z,9.40
2022-11-16T13:17:29.204Z,9.70
2022-11-16T13:20:28.716Z,8.77
2022-11-16T13:23:19.364Z,9.37
2022-11-16T13:25:54.032Z,8.53
2022-11-16T13:28:37.008Z,8.60
2022-11-16T13:31:27.657Z,8.50
2022-11-16T13:34:03.656Z,8.90
2022-11-16T13:36:43.536Z,8.53
2022-11-16T13:39:21.837Z,8.97
2022-11-16T13:42:13.793Z,8.43
2022-11-16T13:44:51.303Z,8.70
2022-11-16T13:47:25.320Z,8.60
2022-11-16T13:49:59.927Z,9.67
2022-11-16T13:53:28.390Z,9.60
2022-11-16T13:55:44.859Z,8.33
2022-11-16T13:58:22.319Z,9.57
2022-11-16T14:01:17.110Z,8.90
2022-11-16T14:03:51.871Z,9.10
2022-11-16T14:06:22.548Z,8.50
2022-11-16T14:09:00.308Z,8.90
2022-11-16T14:11:34.710Z,8.80
2022-11-16T14:17:01.662Z,7.97
2022-11-16T14:19:45.964Z,8.47
2022-11-16T14:22:28.166Z,7.90
2022-11-16T14:25:02.838Z,8.00
2022-11-16T14:27:37.816Z,8.10
2022-11-16T14:30:17.098Z,7.87
2022-11-16T14:32:48.668Z,7.70
2022-11-16T14:35:28.697Z,7.37
2022-11-16T14:38:02.253Z,6.53
2022-11-16T14:40:43.712Z,8.83
2022-11-16T14:43:55.903Z,8.37
2022-11-16T14:46:43.087Z,8.00
2022-11-16T14:49:16.220Z,7.30
2022-11-16T14:51:47.943Z,8.27
2022-11-16T14:54:27.749Z,8.43
2022-11-16T14:57:00.952Z,7.80
2022-11-16T14:59:31.957Z,9.03
2022-11-16T15:02:13.536Z,8.73
2022-11-16T15:04:40.865Z,9.97
2022-11-16T15:07:08.958Z,9.90
2022-11-16T15:09:41.048Z,10.70
2022-11-16T15:12:38.875Z,9.57
2022-11-16T15:15:12.127Z,10.23
2022-11-16T15:17:42.684Z,10.57
2022-11-16T15:23:30.832Z,11.10
2022-11-16T15:26:01.068Z,10.90
2022-11-16T15:28:31.993Z,11.00
2022-11-16T15:31:02.337Z,11.13
2022-11-16T15:33:38.554Z,10.87
2022-11-16T15:36:31.560Z,11.17
2022-11-16T15:39:01.229Z,11.17
2022-11-16T15:41:31.015Z,11.27
2022-11-16T15:44:14.060Z,11.97
2022-11-16T15:46:45.015Z,11.27
2022-11-16T15:49:38.566Z,11.23
2022-11-16T15:52:55.505Z,11.20
2022-11-16T15:55:38.999Z,11.37
2022-11-16T15:58:26.422Z,11.97
2022-11-16T16:00:54.985Z,10.70
2022-11-16T16:03:33.376Z,11.03
2022-11-16T16:06:02.102Z,11.17
2022-11-16T16:08:45.369Z,11.67
2022-11-16T16:11:16.690Z,10.77
2022-11-16T16:16:54.551Z,10.43
2022-11-16T16:19:34.808Z,11.40
2022-11-16T16:22:05.203Z,10.97
2022-11-16T16:24:38.258Z,11.53
2022-11-16T16:27:14.520Z,11.30
2022-11-16T16:29:42.014Z,11.43
2022-11-16T16:32:16.889Z,10.57
2022-11-16T16:35:09.232Z,10.90
2022-11-16T16:37:36.973Z,11.03
2022-11-16T16:40:05.553Z,10.63
2022-11-16T16:42:33.833Z,10.13
2022-11-16T16:45:02.385Z,11.13
2022-11-16T16:47:30.420Z,10.17
2022-11-16T16:49:57.910Z,9.80
2022-11-16T16:52:25.316Z,9.90
2022-11-16T16:54:52.686Z,8.90
2022-11-16T16:57:20.318Z,10.30
2022-11-16T16:59:48.606Z,9.93
2022-11-16T17:02:17.166Z,9.83
2022-11-16T17:04:47.152Z,8.30
2022-11-16T17:07:15.561Z,7.70
2022-11-16T17:09:42.995Z,8.50
2022-11-16T17:12:11.076Z,8.00
2022-11-16T17:14:38.266Z,7.70
2022-11-16T17:17:06.069Z,8.20
2022-11-16T17:19:33.239Z,6.53
2022-11-16T17:22:00.392Z,7.17
2022-11-16T17:24:27.539Z,5.80
2022-11-16T17:26:54.477Z,7.07
2022-11-16T17:29:21.343Z,7.10
2022-11-16T17:31:48.945Z,7.17
2022-11-16T17:34:16.047Z,6.70
2022-11-16T17:36:43.476Z,7.13
2022-11-16T17:39:12.394Z,6.60
2022-11-16T17:41:39.516Z,6.87
2022-11-16T17:44:06.772Z,7.97
2022-11-16T17:46:33.873Z,7.50
2022-11-16T17:49:01.207Z,6.73
2022-11-16T17:51:30.001Z,7.03
2022-11-16T17:53:56.992Z,6.97
2022-11-16T17:56:28.838Z,7.07
2022-11-16T17:58:59.874Z,7.10
2022-11-16T18:01:52.999Z,7.20
2022-11-16T18:04:19.974Z,6.20
2022-11-16T18:06:47.270Z,6.40
2022-11-16T18:09:14.390Z,7.47
2022-11-16T18:11:41.755Z,6.30
2022-11-16T18:14:10.767Z,6.60
2022-11-16T18:16:41.245Z,6.23
2022-11-16T18:19:08.886Z,6.07
2022-11-16T18:21:42.491Z,6.13
2022-11-16T18:24:10.710Z,6.40
2022-11-16T18:26:40.484Z,6.87
2022-11-16T18:29:12.404Z,5.40
2022-11-16T18:31:39.757Z,6.30
2022-11-16T18:34:07.595Z,5.87
2022-11-16T18:36:34.793Z,5.30
2022-11-16T18:39:27.891Z,5.60
2022-11-16T18:41:56.074Z,5.60
2022-11-16T18:44:23.431Z,6.10
2022-11-16T18:46:51.311Z,5.93
2022-11-16T18:49:24.092Z,5.60
2022-11-16T18:51:51.132Z,6.10
2022-11-16T18:54:17.969Z,5.47
2022-11-16T18:56:44.929Z,5.23
2022-11-16T18:59:11.798Z,5.17
2022-11-16T19:01:38.854Z,4.90
2022-11-16T19:04:07.792Z,5.20
2022-11-16T19:06:35.642Z,5.13
2022-11-16T19:09:04.505Z,5.67
2022-11-16T19:11:31.782Z,5.27
2022-11-16T19:14:04.386Z,5.50
2022-11-16T19:16:32.125Z,5.07
2022-11-16T19:18:59.724Z,5.60
2022-11-16T19:21:27.598Z,5.50
2022-11-16T19:23:56.562Z,6.07
2022-11-16T19:26:27.389Z,6.27
2022-11-16T19:29:08.868Z,5.93
2022-11-16T19:31:36.676Z,6.10
2022-11-16T19:34:07.263Z,4.80
2022-11-16T19:36:36.826Z,4.73
2022-11-16T19:39:06.897Z,4.87
2022-11-16T19:41:34.194Z,6.03
2022-11-16T19:44:03.264Z,5.90
2022-11-16T19:46:34.134Z,5.27
2022-11-16T19:49:01.861Z,6.30
2022-11-16T19:51:33.900Z,3.80
2022-11-16T19:54:27.531Z,5.23
2022-11-16T19:56:55.309Z,6.43
2022-11-16T19:59:23.573Z,6.83
2022-11-16T20:01:50.904Z,7.97
2022-11-16T20:04:20.780Z,3.10
2022-11-16T20:06:48.162Z,4.10
2022-11-16T20:09:15.786Z,3.57
2022-11-16T20:11:43.213Z,3.47
2022-11-16T20:14:12.529Z,3.63
2022-11-16T20:16:41.443Z,3.73
2022-11-16T20:19:10.280Z,4.10
2022-11-16T20:21:43.107Z,3.80
2022-11-16T20:24:40.115Z,4.10
2022-11-16T20:27:10.774Z,3.50
2022-11-16T20:29:38.194Z,3.80
2022-11-16T20:32:09.203Z,4.10
2022-11-16T20:34:36.430Z,4.20
2022-11-16T20:37:03.373Z,4.07
2022-11-16T20:39:30.273Z,4.40
2022-11-16T20:41:57.330Z,4.30
2022-11-16T20:44:24.470Z,4.20
2022-11-16T20:46:54.178Z,4.20
2022-11-16T20:49:21.634Z,3.20
2022-11-16T20:51:49.646Z,3.80
2022-11-16T20:54:16.568Z,3.77
2022-11-16T20:56:44.537Z,3.40
2022-11-16T20:59:11.699Z,4.17
2022-11-16T21:01:38.656Z,3.33
2022-11-16T21:04:30.705Z,3.80
2022-11-16T21:06:57.738Z,3.20
2022-11-16T21:09:25.833Z,3.50
2022-11-16T21:12:11.212Z,3.50
2022-11-16T21:14:38.377Z,3.70
2022-11-16T21:17:05.508Z,3.37
2022-11-16T21:19:32.614Z,2.93
2022-11-16T21:21:59.770Z,3.50
2022-11-16T21:24:28.467Z,3.03
2022-11-16T21:26:55.480Z,3.73
2022-11-16T21:29:25.998Z,3.07
2022-11-16T21:31:53.099Z,3.67
2022-11-16T21:34:20.375Z,2.90
2022-11-16T21:36:47.690Z,3.23
2022-11-16T21:39:14.646Z,3.77
2022-11-16T21:41:41.758Z,3.10
2022-11-16T21:44:13.943Z,3.60
2022-11-16T21:46:40.950Z,2.87
2022-11-16T21:49:07.989Z,3.00
2022-11-16T21:51:35.089Z,3.17
2022-11-16T21:54:02.089Z,3.10
2022-11-16T21:56:29.298Z,2.97
2022-11-16T21:58:58.005Z,3.10
2022-11-16T22:01:25.024Z,2.80
2022-11-16T22:04:10.382Z,2.70
2022-11-16T22:06:55.735Z,2.90
2022-11-16T22:09:22.987Z,2.93
2022-11-16T22:11:49.993Z,2.80
2022-11-16T22:14:17.001Z,2.30
2022-11-16T22:16:43.999Z,2.83
2022-11-16T22:19:10.872Z,3.10
2022-11-16T22:21:38.273Z,2.57
2022-11-16T22:24:05.469Z,2.70
2022-11-16T22:26:32.390Z,2.13
2022-11-16T22:28:59.493Z,2.70
2022-11-16T22:31:26.511Z,2.40
2022-11-16T22:33:56.263Z,2.53
2022-11-16T22:36:23.449Z,2.50
2022-11-16T22:38:50.603Z,2.70
2022-11-16T22:41:17.614Z,2.17
2022-11-16T22:43:44.659Z,2.67
2022-11-16T22:46:14.531Z,2.50
2022-11-16T22:48:42.082Z,2.40
2022-11-16T22:51:26.340Z,2.70
2022-11-16T22:53:54.572Z,2.40
2022-11-16T22:56:21.825Z,2.20
2022-11-16T22:58:48.832Z,2.10
2022-11-16T23:01:15.755Z,2.33
2022-11-16T23:03:44.084Z,2.20
2022-11-16T23:06:11.149Z,2.07
2022-11-16T23:08:40.065Z,2.40
2022-11-16T23:11:37.263Z,2.10
2022-11-16T23:14:24.099Z,2.30
2022-11-16T23:16:51.611Z,2.20
2022-11-16T23:19:38.576Z,2.03
2022-11-16T23:22:25.009Z,2.40
2022-11-16T23:25:10.327Z,2.30
2022-11-16T23:27:43.344Z,2.20
2022-11-16T23:30:12.757Z,2.40
2022-11-16T23:32:41.313Z,1.97
2022-11-16T23:35:11.116Z,2.20
2022-11-16T23:37:58.148Z,2.37
2022-11-16T23:40:28.253Z,2.00
2022-11-16T23:43:14.743Z,2.10
2022-11-16T23:45:44.771Z,2.20
2022-11-16T23:48:14.913Z,2.27
2022-11-16T23:50:42.988Z,2.13
2022-11-16T23:53:10.363Z,2.50
2022-11-16T23:55:38.923Z,2.10
